Time;durP1;ratioP1;P1;durP2;ratioP2;P2;SDS_P1;SDS_P2;PMS_P1;PMS_P2;Temp;Humidity;BMP_temperature;BMP_pressure;BME280_temperature;BME280_humidity;BME280_pressure;Samples;Min_cycle;Max_cycle;Signal;HPM_P1;HPM_P2
2023/03/12 00:01:44;;;;;;;10.68;8.85;;;1.50;99.90;;;;;;5038565;28;20083;-82
2023/03/12 00:04:10;;;;;;;18.58;11.18;;;1.50;99.90;;;;;;5018390;28;20025;-82
2023/03/12 00:06:36;;;;;;;12.80;8.75;;;1.60;99.90;;;;;;5020698;28;20032;-80
2023/03/12 00:09:03;;;;;;;13.45;9.02;;;1.60;99.90;;;;;;5034388;28;20463;-80
2023/03/12 00:11:29;;;;;;;14.45;9.05;;;1.60;99.90;;;;;;5025707;28;20391;-79
2023/03/12 00:13:57;;;;;;;12.73;9.52;;;1.60;99.90;;;;;;5028444;28;20060;-80
2023/03/12 00:16:24;;;;;;;12.55;9.65;;;1.60;99.90;;;;;;5031326;28;20022;-82
2023/03/12 00:18:52;;;;;;;13.38;9.05;;;1.70;99.90;;;;;;5034062;28;20021;-82
2023/03/12 00:21:19;;;;;;;11.00;8.38;;;1.70;99.90;;;;;;5028865;28;20026;-82
2023/03/12 00:23:47;;;;;;;13.07;7.65;;;1.80;99.90;;;;;;5029479;28;20026;-80
2023/03/12 00:26:13;;;;;;;;;;;1.80;99.90;;;;;;5021399;28;20104;-80
2023/03/12 00:28:39;;;;;;;8.00;6.83;;;1.90;99.90;;;;;;5029728;28;19909;-80
2023/03/12 00:31:26;;;;;;;12.10;9.38;;;1.90;99.90;;;;;;5018068;28;20113;-80
2023/03/12 00:33:52;;;;;;;10.88;5.90;;;1.90;99.90;;;;;;5027970;28;20034;-81
2023/03/12 00:36:23;;;;;;;7.57;6.77;;;2.00;99.90;;;;;;5007425;28;20097;-82
2023/03/12 00:38:50;;;;;;;8.90;6.85;;;2.00;99.90;;;;;;5029446;28;20020;-81
2023/03/12 00:41:18;;;;;;;7.80;6.47;;;2.00;99.90;;;;;;5031805;28;20037;-82
2023/03/12 00:43:47;;;;;;;7.00;6.30;;;2.10;99.90;;;;;;5029981;28;20022;-81
2023/03/12 00:46:13;;;;;;;9.00;7.25;;;2.10;99.90;;;;;;5030606;28;20028;-81
2023/03/12 00:48:39;;;;;;;9.35;7.53;;;2.10;99.90;;;;;;5029675;28;20014;-79
2023/03/12 00:51:06;;;;;;;10.35;7.25;;;2.20;99.90;;;;;;5030092;28;20032;-79
2023/03/12 00:53:31;;;;;;;9.52;7.40;;;2.20;99.90;;;;;;5029101;28;20470;-83
2023/03/12 00:55:57;;;;;;;9.57;6.50;;;2.20;99.90;;;;;;5026641;28;20029;-81
2023/03/12 00:58:23;;;;;;;8.45;6.78;;;2.20;99.90;;;;;;5029865;28;20028;-82
2023/03/12 01:00:49;;;;;;;8.23;6.35;;;2.20;99.90;;;;;;5019013;28;20133;-82
2023/03/12 01:03:15;;;;;;;9.40;6.68;;;2.30;99.90;;;;;;5025641;28;20037;-82
2023/03/12 01:05:41;;;;;;;8.13;6.55;;;2.30;99.90;;;;;;5026319;28;20092;-81
2023/03/12 01:08:09;;;;;;;7.53;6.32;;;2.30;99.90;;;;;;5030772;28;20064;-81
2023/03/12 01:10:36;;;;;;;8.88;7.78;;;2.40;99.90;;;;;;5026089;28;20109;-82
2023/03/12 01:13:02;;;;;;;9.23;6.72;;;2.50;99.90;;;;;;5022572;28;20025;-81
2023/03/12 01:15:31;;;;;;;9.40;6.95;;;2.60;99.90;;;;;;5030603;28;20029;-81
2023/03/12 01:17:57;;;;;;;10.82;7.03;;;2.60;99.90;;;;;;5029180;28;20060;-80
2023/03/12 01:20:23;;;;;;;9.85;7.45;;;2.70;99.90;;;;;;5037351;28;20034;-81
2023/03/12 01:22:50;;;;;;;16.48;9.57;;;2.70;99.90;;;;;;5041981;28;20069;-81
2023/03/12 01:25:16;;;;;;;13.98;10.13;;;2.70;99.90;;;;;;5036452;28;20410;-82
2023/03/12 01:27:41;;;;;;;17.55;10.60;;;2.80;99.90;;;;;;5034713;28;20045;-83
2023/03/12 01:30:09;;;;;;;15.85;10.85;;;2.80;99.90;;;;;;5026533;28;20037;-82
2023/03/12 01:32:34;;;;;;;17.83;13.55;;;2.90;99.90;;;;;;5016353;28;20112;-82
2023/03/12 01:35:00;;;;;;;27.08;14.93;;;2.90;99.90;;;;;;5013486;28;20084;-83
2023/03/12 01:37:27;;;;;;;24.48;14.88;;;2.90;99.90;;;;;;5013852;28;20033;-83
2023/03/12 01:39:53;;;;;;;31.25;18.10;;;3.00;99.90;;;;;;5010064;28;20034;-83
2023/03/12 01:42:19;;;;;;;28.00;16.52;;;3.00;99.90;;;;;;5014297;28;20092;-83
2023/03/12 01:45:14;;;;;;;27.75;16.38;;;3.00;99.90;;;;;;5014191;28;20025;-82
2023/03/12 01:47:39;;;;;;;27.05;17.17;;;3.10;99.90;;;;;;5004454;28;20041;-82
2023/03/12 01:50:06;;;;;;;40.75;20.00;;;3.10;99.90;;;;;;5014789;28;20038;-83
2023/03/12 01:52:37;;;;;;;34.80;19.27;;;3.10;99.90;;;;;;5015201;28;20025;-82
2023/03/12 01:55:15;;;;;;;32.78;19.17;;;3.10;99.90;;;;;;5013087;28;20116;-83
2023/03/12 01:57:49;;;;;;;37.03;21.00;;;3.20;99.90;;;;;;5013762;28;20390;-81
2023/03/12 02:00:26;;;;;;;36.92;22.52;;;3.20;99.90;;;;;;5013588;28;20136;-81
2023/03/12 02:02:58;;;;;;;44.43;23.67;;;3.20;99.90;;;;;;5015638;28;20014;-81
2023/03/12 02:05:54;;;;;;;38.22;21.40;;;3.30;99.90;;;;;;5014378;28;20255;-82
2023/03/12 02:08:22;;;;;;;30.02;20.85;;;3.30;99.90;;;;;;5003032;28;20455;-81
2023/03/12 02:10:48;;;;;;;34.20;23.30;;;3.30;99.90;;;;;;5012922;28;20113;-82
2023/03/12 02:13:14;;;;;;;43.38;25.70;;;3.40;99.90;;;;;;5010899;28;20029;-83
2023/03/12 02:15:40;;;;;;;37.05;24.75;;;3.40;99.90;;;;;;5013214;28;20391;-82
2023/03/12 02:18:10;;;;;;;47.03;24.38;;;3.50;99.90;;;;;;5011844;28;20021;-81
2023/03/12 02:21:07;;;;;;;44.22;26.50;;;3.50;99.90;;;;;;5013224;28;20499;-83
2023/03/12 02:23:41;;;;;;;42.25;25.90;;;3.50;99.90;;;;;;5003012;28;20506;-82
2023/03/12 02:26:12;;;;;;;43.00;24.92;;;3.50;99.90;;;;;;5015294;28;20029;-82
2023/03/12 02:28:42;;;;;;;46.90;24.77;;;3.50;99.90;;;;;;5018590;28;20026;-82
2023/03/12 02:31:12;;;;;;;49.30;28.73;;;3.60;99.90;;;;;;5015013;28;20029;-83
2023/03/12 02:33:37;;;;;;;50.65;27.90;;;3.60;99.90;;;;;;5013133;28;20026;-83
2023/03/12 02:36:04;;;;;;;43.22;28.23;;;3.60;99.90;;;;;;5013352;28;20022;-83
2023/03/12 02:38:43;;;;;;;40.65;24.52;;;3.60;99.90;;;;;;5022353;28;20097;-83
2023/03/12 02:41:23;;;;;;;41.30;26.35;;;3.60;99.90;;;;;;5015086;28;20034;-82
2023/03/12 02:43:57;;;;;;;58.90;29.55;;;3.60;99.90;;;;;;5013478;28;20026;-83
2023/03/12 02:46:23;;;;;;;47.95;27.95;;;3.70;99.90;;;;;;5009360;28;20018;-83
2023/03/12 02:48:50;;;;;;;46.22;28.77;;;3.70;99.90;;;;;;5014315;28;20396;-83
2023/03/12 02:51:16;;;;;;;40.80;25.58;;;3.70;99.90;;;;;;5024200;28;20425;-82
2023/03/12 02:53:42;;;;;;;53.60;28.83;;;3.70;99.90;;;;;;5025089;28;20058;-81
2023/03/12 02:56:08;;;;;;;49.03;30.08;;;3.70;99.90;;;;;;5039248;28;20018;-83
2023/03/12 02:58:35;;;;;;;45.05;28.17;;;3.80;99.90;;;;;;5024079;28;20096;-82
2023/03/12 03:01:00;;;;;;;49.80;29.42;;;3.80;99.90;;;;;;5030599;28;20025;-82
2023/03/12 03:03:26;;;;;;;47.53;26.02;;;3.80;99.90;;;;;;5030296;28;20498;-83
2023/03/12 03:05:52;;;;;;;48.28;28.38;;;3.80;99.90;;;;;;5024500;28;20029;-82
2023/03/12 03:08:18;;;;;;;44.90;28.40;;;3.90;99.90;;;;;;5019571;28;20105;-83
2023/03/12 03:10:44;;;;;;;49.08;28.75;;;3.90;99.90;;;;;;5018006;28;20471;-83
2023/03/12 03:13:10;;;;;;;49.45;26.70;;;3.90;99.90;;;;;;5022078;28;20013;-83
2023/03/12 03:15:37;;;;;;;39.63;23.77;;;3.90;99.90;;;;;;5020628;28;20030;-82
2023/03/12 03:18:04;;;;;;;37.95;26.52;;;3.90;99.90;;;;;;5016406;28;20025;-82
2023/03/12 03:20:31;;;;;;;37.70;25.45;;;3.90;99.90;;;;;;5017646;28;20074;-82
2023/03/12 03:22:57;;;;;;;41.50;25.58;;;3.90;99.90;;;;;;5009561;28;20017;-82
2023/03/12 03:25:23;;;;;;;41.45;26.15;;;3.90;99.90;;;;;;5026510;28;20037;-81
2023/03/12 03:27:49;;;;;;;46.22;28.15;;;3.90;99.90;;;;;;5027794;28;20026;-80
2023/03/12 03:30:17;;;;;;;41.95;27.17;;;3.90;99.90;;;;;;5025869;28;20053;-83
2023/03/12 03:32:43;;;;;;;41.97;26.48;;;3.90;99.90;;;;;;5017754;28;20018;-84
2023/03/12 03:35:09;;;;;;;43.53;26.50;;;3.90;99.90;;;;;;5014531;28;20505;-82
2023/03/12 03:37:35;;;;;;;37.92;24.45;;;4.00;99.90;;;;;;5015761;28;20030;-81
2023/03/12 03:40:00;;;;;;;46.35;26.42;;;4.00;99.90;;;;;;5017021;28;20036;-82
2023/03/12 03:42:27;;;;;;;47.38;29.02;;;4.00;99.90;;;;;;5017349;28;20084;-82
2023/03/12 03:44:53;;;;;;;44.33;29.15;;;4.00;99.90;;;;;;5016883;28;20030;-83
2023/03/12 03:47:18;;;;;;;46.72;29.52;;;4.00;99.90;;;;;;5014283;28;20125;-83
2023/03/12 03:49:44;;;;;;;52.35;30.98;;;4.00;99.90;;;;;;5016274;28;20057;-82
2023/03/12 03:52:10;;;;;;;47.85;29.17;;;4.10;99.90;;;;;;5023602;28;20042;-81
2023/03/12 03:54:36;;;;;;;48.17;30.15;;;4.10;99.90;;;;;;5019436;28;20152;-83
2023/03/12 03:57:02;;;;;;;55.95;36.72;;;4.10;99.90;;;;;;5015728;28;20528;-82
2023/03/12 03:59:28;;;;;;;56.80;35.30;;;4.10;99.90;;;;;;5015315;28;20503;-82
2023/03/12 04:01:54;;;;;;;54.60;32.60;;;4.10;99.90;;;;;;5014223;28;20076;-81
2023/03/12 04:04:20;;;;;;;56.22;30.65;;;4.10;99.90;;;;;;5014527;28;20076;-81
2023/03/12 04:06:46;;;;;;;58.90;35.55;;;4.20;99.90;;;;;;5019024;28;20026;-83
2023/03/12 04:09:12;;;;;;;58.95;35.92;;;4.20;99.90;;;;;;5020855;28;20479;-81
2023/03/12 04:11:38;;;;;;;68.35;38.63;;;4.20;99.90;;;;;;5013335;28;20467;-82
2023/03/12 04:14:04;;;;;;;67.82;35.25;;;4.20;99.90;;;;;;5014902;28;20025;-82
2023/03/12 04:16:30;;;;;;;72.88;38.53;;;4.20;99.90;;;;;;5014712;28;20483;-81
2023/03/12 04:18:55;;;;;;;68.60;38.05;;;4.30;99.90;;;;;;5014787;28;20025;-82
2023/03/12 04:21:21;;;;;;;76.22;38.28;;;4.30;99.90;;;;;;5014458;28;20029;-82
2023/03/12 04:23:47;;;;;;;63.60;40.75;;;4.30;99.90;;;;;;5013301;28;20112;-83
2023/03/12 04:26:13;;;;;;;69.95;36.45;;;4.30;99.90;;;;;;5013314;28;20164;-81
2023/03/12 04:28:39;;;;;;;63.92;34.78;;;4.30;99.90;;;;;;5013931;28;20033;-82
2023/03/12 04:31:06;;;;;;;63.45;34.90;;;4.40;99.90;;;;;;5014763;28;20480;-82
2023/03/12 04:33:37;;;;;;;67.80;36.95;;;4.40;99.90;;;;;;5014381;28;20097;-82
2023/03/12 04:36:03;;;;;;;59.92;34.45;;;4.40;99.90;;;;;;5014541;28;20475;-80
2023/03/12 04:38:29;;;;;;;62.67;35.15;;;4.40;99.90;;;;;;5014603;28;20033;-82
2023/03/12 04:41:02;;;;;;;61.95;32.53;;;4.40;99.90;;;;;;5014943;28;20507;-82
2023/03/12 04:43:29;;;;;;;56.58;32.75;;;4.40;99.90;;;;;;5013899;28;20025;-82
2023/03/12 04:45:56;;;;;;;51.13;30.92;;;4.40;99.90;;;;;;5021382;28;20025;-83
2023/03/12 04:48:22;;;;;;;56.70;31.37;;;4.40;99.90;;;;;;5021420;28;20073;-81
2023/03/12 04:50:48;;;;;;;57.25;31.05;;;4.40;99.90;;;;;;5014735;28;20021;-83
2023/03/12 04:53:14;;;;;;;58.50;29.85;;;4.50;99.90;;;;;;5014948;28;20074;-83
2023/03/12 04:55:41;;;;;;;65.47;34.53;;;4.50;99.90;;;;;;5015865;28;20080;-82
2023/03/12 04:58:07;;;;;;;67.35;38.38;;;4.50;99.90;;;;;;5015169;28;20472;-82
2023/03/12 05:00:32;;;;;;;67.07;39.47;;;4.50;99.90;;;;;;5014087;28;20054;-82
2023/03/12 05:03:01;;;;;;;65.35;38.70;;;4.60;99.90;;;;;;5014934;28;20463;-81
2023/03/12 05:05:27;;;;;;;59.05;35.90;;;4.60;99.90;;;;;;5019950;28;20037;-81
2023/03/12 05:07:53;;;;;;;67.00;37.08;;;4.60;99.90;;;;;;5021336;28;20503;-83
2023/03/12 05:10:19;;;;;;;62.05;36.47;;;4.60;99.90;;;;;;5013132;28;20494;-83
2023/03/12 05:12:44;;;;;;;60.65;38.85;;;4.60;99.90;;;;;;5012498;28;20024;-81
2023/03/12 05:15:10;;;;;;;56.20;31.90;;;4.70;99.90;;;;;;5013445;28;20025;-82
2023/03/12 05:17:36;;;;;;;55.38;36.65;;;4.70;99.90;;;;;;5012721;28;20064;-82
2023/03/12 05:20:04;;;;;;;53.15;32.80;;;4.70;99.90;;;;;;5012410;28;20029;-82
2023/03/12 05:22:31;;;;;;;66.53;36.40;;;4.80;99.90;;;;;;5014525;28;20101;-82
2023/03/12 05:24:57;;;;;;;46.22;30.83;;;4.80;99.90;;;;;;5021604;28;20033;-82
2023/03/12 05:27:24;;;;;;;55.10;30.52;;;4.80;99.90;;;;;;5022659;28;20029;-83
2023/03/12 05:29:51;;;;;;;48.47;29.92;;;4.90;99.90;;;;;;5019219;28;20402;-82
2023/03/12 05:32:17;;;;;;;51.38;31.67;;;4.90;99.90;;;;;;5015018;28;20387;-80
2023/03/12 05:34:43;;;;;;;41.70;24.60;;;4.90;99.90;;;;;;5022336;28;20033;-83
2023/03/12 05:37:09;;;;;;;41.50;25.85;;;4.90;99.90;;;;;;5027541;28;20024;-81
2023/03/12 05:39:35;;;;;;;40.53;24.60;;;4.90;99.90;;;;;;5028935;28;20033;-80
2023/03/12 05:42:01;;;;;;;39.67;24.85;;;5.00;99.90;;;;;;5025646;28;20057;-82
2023/03/12 05:44:27;;;;;;;39.88;23.65;;;5.00;99.90;;;;;;5019511;28;20109;-82
2023/03/12 05:46:53;;;;;;;40.63;22.17;;;5.00;99.90;;;;;;5023705;28;20026;-81
2023/03/12 05:49:19;;;;;;;39.85;19.70;;;5.00;99.90;;;;;;5023718;28;20017;-82
2023/03/12 05:51:49;;;;;;;31.05;19.70;;;5.10;99.90;;;;;;5026499;28;20060;-82
2023/03/12 05:54:16;;;;;;;43.42;23.08;;;5.10;99.90;;;;;;5028012;28;20029;-82
2023/03/12 05:56:42;;;;;;;39.47;23.07;;;5.10;99.90;;;;;;5025841;28;20513;-83
2023/03/12 05:59:11;;;;;;;34.28;20.00;;;5.10;99.90;;;;;;5019536;28;20387;-80
2023/03/12 06:01:38;;;;;;;41.38;23.33;;;5.10;99.90;;;;;;5028321;28;20053;-81
2023/03/12 06:04:05;;;;;;;41.17;22.75;;;5.20;99.90;;;;;;5017120;28;20046;-81
2023/03/12 06:06:33;;;;;;;43.53;22.60;;;5.20;99.90;;;;;;5028934;28;20087;-80
2023/03/12 06:08:59;;;;;;;40.22;21.80;;;5.20;99.90;;;;;;5029203;28;20049;-81
2023/03/12 06:11:26;;;;;;;35.72;22.85;;;5.30;99.90;;;;;;5031896;28;20104;-81
2023/03/12 06:13:51;;;;;;;39.35;22.40;;;5.20;99.90;;;;;;5029633;28;20026;-83
2023/03/12 06:16:23;;;;;;;38.30;22.92;;;5.30;99.90;;;;;;5031021;28;20540;-80
2023/03/12 06:18:52;;;;;;;36.28;23.33;;;5.30;99.90;;;;;;5030175;28;20013;-81
2023/03/12 06:21:21;;;;;;;30.70;18.90;;;5.30;99.90;;;;;;5026595;28;20033;-82
2023/03/12 06:23:48;;;;;;;40.58;23.67;;;5.30;99.90;;;;;;5019964;28;20478;-82
2023/03/12 06:26:15;;;;;;;37.20;22.30;;;5.40;99.90;;;;;;5017672;28;20136;-82
2023/03/12 06:28:41;;;;;;;38.65;22.63;;;5.40;99.90;;;;;;5005585;28;20029;-82
2023/03/12 06:31:08;;;;;;;40.53;21.92;;;5.30;99.90;;;;;;5017275;28;20104;-83
2023/03/12 06:33:34;;;;;;;48.07;25.57;;;5.40;99.90;;;;;;5015422;28;20022;-82
2023/03/12 06:36:02;;;;;;;36.22;21.23;;;5.40;99.90;;;;;;5016974;28;20033;-80
2023/03/12 06:38:27;;;;;;;;;;;5.40;99.90;;;;;;5017759;28;20050;-82
2023/03/12 06:40:57;;;;;;;42.45;26.00;;;5.40;99.90;;;;;;5015508;28;19917;-81
2023/03/12 06:43:25;;;;;;;44.22;23.73;;;5.40;99.90;;;;;;5013906;28;20029;-82
2023/03/12 06:45:52;;;;;;;57.45;29.08;;;5.40;99.90;;;;;;5015758;28;20356;-82
2023/03/12 06:48:18;;;;;;;;;;;5.40;99.90;;;;;;5014710;28;20061;-81
2023/03/12 06:50:44;;;;;;;43.38;26.92;;;5.50;99.90;;;;;;5014575;28;19912;-82
2023/03/12 06:53:10;;;;;;;46.83;26.48;;;5.50;99.90;;;;;;5015398;28;20083;-82
2023/03/12 06:55:36;;;;;;;45.42;27.10;;;5.50;99.90;;;;;;5014814;28;20048;-81
2023/03/12 06:58:03;;;;;;;52.30;28.08;;;5.50;99.90;;;;;;5014328;28;20558;-81
2023/03/12 07:00:29;;;;;;;54.63;30.35;;;5.50;99.90;;;;;;5014304;28;20057;-82
2023/03/12 07:02:56;;;;;;;55.00;29.92;;;5.50;99.90;;;;;;5020501;28;20038;-84
2023/03/12 07:05:23;;;;;;;52.50;31.75;;;5.60;99.90;;;;;;5018180;28;20050;-82
2023/03/12 07:07:49;;;;;;;52.38;34.33;;;5.60;99.90;;;;;;5021812;28;20021;-83
2023/03/12 07:10:15;;;;;;;59.47;31.63;;;5.60;99.90;;;;;;5016718;28;20041;-82
2023/03/12 07:12:41;;;;;;;51.88;29.40;;;5.60;99.90;;;;;;5017855;28;20076;-82
2023/03/12 07:15:07;;;;;;;43.92;24.25;;;5.60;99.90;;;;;;5010707;28;20023;-83
2023/03/12 07:17:33;;;;;;;44.97;27.50;;;5.60;99.90;;;;;;5034468;28;20076;-82
2023/03/12 07:19:59;;;;;;;47.47;30.48;;;5.70;99.90;;;;;;5016442;28;20452;-81
2023/03/12 07:22:25;;;;;;;51.05;28.92;;;5.60;99.90;;;;;;5020137;28;20030;-83
2023/03/12 07:24:51;;;;;;;54.72;29.90;;;5.70;99.90;;;;;;5036324;28;20049;-81
2023/03/12 07:27:17;;;;;;;48.80;29.98;;;5.70;99.90;;;;;;5027404;28;20041;-80
2023/03/12 07:29:43;;;;;;;50.50;29.73;;;5.80;99.90;;;;;;5030132;28;20060;-83
2023/03/12 07:32:09;;;;;;;49.83;30.20;;;5.80;99.90;;;;;;5023985;28;20033;-80
2023/03/12 07:34:47;;;;;;;47.22;28.42;;;5.80;99.90;;;;;;5019987;28;20022;-83
2023/03/12 07:37:13;;;;;;;52.42;28.75;;;5.80;99.90;;;;;;5015818;28;20028;-83
2023/03/12 07:39:39;;;;;;;53.20;30.00;;;5.80;99.90;;;;;;5013628;28;20530;-81
2023/03/12 07:42:05;;;;;;;47.00;26.85;;;5.80;99.90;;;;;;5013796;28;20022;-83
2023/03/12 07:44:32;;;;;;;50.63;28.42;;;5.80;99.90;;;;;;5013862;28;20106;-82
2023/03/12 07:46:58;;;;;;;49.20;30.47;;;5.80;99.90;;;;;;5013008;28;20026;-83
2023/03/12 07:49:25;;;;;;;48.05;28.85;;;5.80;99.90;;;;;;5015017;28;20267;-82
2023/03/12 07:51:51;;;;;;;42.13;24.13;;;5.80;99.90;;;;;;5015156;28;20033;-82
2023/03/12 07:54:17;;;;;;;39.38;23.92;;;5.80;99.90;;;;;;5016003;28;20052;-83
2023/03/12 07:56:43;;;;;;;39.70;29.38;;;5.80;99.90;;;;;;5017265;28;20030;-83
2023/03/12 07:59:08;;;;;;;40.08;25.33;;;5.80;99.90;;;;;;5015367;28;20073;-82
2023/03/12 08:01:34;;;;;;;44.83;27.60;;;5.90;99.90;;;;;;5015817;28;20041;-82
2023/03/12 08:04:01;;;;;;;41.03;25.45;;;5.90;99.90;;;;;;5019029;28;20156;-82
2023/03/12 08:06:28;;;;;;;36.67;23.60;;;5.80;99.90;;;;;;5020153;28;20050;-83
2023/03/12 08:08:54;;;;;;;38.05;24.08;;;5.80;99.90;;;;;;5016518;28;20021;-81
2023/03/12 08:11:21;;;;;;;37.15;25.13;;;5.90;99.90;;;;;;5018587;28;20101;-82
2023/03/12 08:13:47;;;;;;;42.38;25.90;;;5.90;99.90;;;;;;5014408;28;20018;-81
2023/03/12 08:16:13;;;;;;;36.85;24.15;;;5.90;99.90;;;;;;5028121;28;20026;-82
2023/03/12 08:18:39;;;;;;;38.28;24.63;;;5.90;99.90;;;;;;5037144;28;20022;-82
2023/03/12 08:21:05;;;;;;;48.90;27.15;;;5.90;99.90;;;;;;5028221;28;20068;-82
2023/03/12 08:23:31;;;;;;;40.25;26.30;;;6.00;99.90;;;;;;5028243;28;20162;-81
2023/03/12 08:25:58;;;;;;;41.22;25.02;;;5.90;99.90;;;;;;5022083;28;20475;-81
2023/03/12 08:28:26;;;;;;;43.55;25.17;;;6.00;99.90;;;;;;5024223;28;20067;-82
2023/03/12 08:30:57;;;;;;;49.10;26.80;;;5.90;99.90;;;;;;5015308;28;20032;-80
2023/03/12 08:33:28;;;;;;;45.50;26.00;;;5.90;99.90;;;;;;5016679;28;20026;-82
2023/03/12 08:35:54;;;;;;;41.90;23.65;;;6.00;99.90;;;;;;5035568;28;20429;-82
2023/03/12 08:38:20;;;;;;;38.38;24.42;;;5.90;99.90;;;;;;5033597;28;20029;-83
2023/03/12 08:41:07;;;;;;;39.67;25.73;;;6.00;99.90;;;;;;5028713;28;20033;-81
2023/03/12 08:43:35;;;;;;;35.75;21.65;;;6.00;99.90;;;;;;5024426;28;20033;-81
2023/03/12 08:46:02;;;;;;;35.88;24.55;;;6.00;99.90;;;;;;5038110;28;20021;-83
2023/03/12 08:48:30;;;;;;;35.70;23.02;;;6.10;99.90;;;;;;5029374;28;20462;-83
2023/03/12 08:50:57;;;;;;;45.53;23.98;;;6.10;99.90;;;;;;5024026;28;20022;-82
2023/03/12 08:53:25;;;;;;;36.08;21.90;;;6.10;99.90;;;;;;5020945;28;20022;-81
2023/03/12 08:55:53;;;;;;;36.97;23.38;;;6.10;99.90;;;;;;5027372;28;20022;-81
2023/03/12 08:58:19;;;;;;;34.80;22.23;;;6.20;99.90;;;;;;5022432;28;20018;-81
2023/03/12 09:00:45;;;;;;;38.75;23.52;;;6.20;99.90;;;;;;5020983;28;20418;-81
2023/03/12 09:03:13;;;;;;;33.35;22.05;;;6.20;99.90;;;;;;5020379;28;20014;-81
2023/03/12 09:05:40;;;;;;;34.17;20.48;;;6.20;99.90;;;;;;5017178;28;20030;-80
2023/03/12 09:08:07;;;;;;;33.33;22.23;;;6.20;99.90;;;;;;5024674;28;20036;-80
2023/03/12 09:10:33;;;;;;;35.17;21.30;;;6.20;99.90;;;;;;5016129;28;20088;-82
2023/03/12 09:12:59;;;;;;;33.45;18.85;;;6.20;99.90;;;;;;5015294;28;20264;-82
2023/03/12 09:15:26;;;;;;;31.52;20.90;;;6.20;99.90;;;;;;5015009;28;20030;-80
2023/03/12 09:17:52;;;;;;;31.52;21.05;;;6.20;99.90;;;;;;5018181;28;20029;-83
2023/03/12 09:20:19;;;;;;;31.03;22.40;;;6.30;99.90;;;;;;5025318;28;20104;-82
2023/03/12 09:22:45;;;;;;;34.58;21.80;;;6.30;99.90;;;;;;5024059;28;20702;-83
2023/03/12 09:25:11;;;;;;;31.35;20.45;;;6.30;99.90;;;;;;5028729;28;20060;-81
2023/03/12 09:27:43;;;;;;;27.67;17.75;;;6.40;99.90;;;;;;5034950;28;20112;-84
2023/03/12 09:30:13;;;;;;;27.60;19.02;;;6.30;99.90;;;;;;5024454;28;20037;-82
2023/03/12 09:32:39;;;;;;;26.85;17.10;;;6.20;99.90;;;;;;5026459;28;20417;-81
2023/03/12 09:35:06;;;;;;;26.20;16.00;;;6.30;99.90;;;;;;5021610;28;20153;-83
2023/03/12 09:37:33;;;;;;;26.45;16.50;;;6.30;99.90;;;;;;5023701;28;20037;-83
2023/03/12 09:39:59;;;;;;;23.95;16.50;;;6.30;99.90;;;;;;5033577;28;20071;-83
2023/03/12 09:42:35;;;;;;;25.00;14.30;;;6.30;99.90;;;;;;5031833;28;20026;-86
2023/03/12 09:45:04;;;;;;;23.20;16.45;;;6.30;99.90;;;;;;5031522;28;20025;-83
2023/03/12 09:47:34;;;;;;;28.17;17.75;;;6.30;99.90;;;;;;5018973;28;20025;-83
2023/03/12 09:50:23;;;;;;;22.90;14.98;;;6.30;99.90;;;;;;5033198;28;20021;-90
2023/03/12 09:53:27;;;;;;;25.45;15.70;;;6.30;99.90;;;;;;5015612;28;20036;-88
2023/03/12 09:55:57;;;;;;;20.05;13.18;;;6.30;99.90;;;;;;5036842;28;20090;-85
2023/03/12 09:58:35;;;;;;;20.58;15.10;;;6.30;99.90;;;;;;5040803;28;20056;-85
2023/03/12 10:01:07;;;;;;;19.38;15.00;;;6.30;99.90;;;;;;5035571;28;20064;-87
2023/03/12 10:03:55;;;;;;;20.77;14.23;;;6.30;99.90;;;;;;5021854;28;20427;-84
2023/03/12 10:06:28;;;;;;;15.65;11.27;;;6.40;99.90;;;;;;5011068;28;20045;-85
2023/03/12 10:09:42;;;;;;;19.60;12.27;;;6.50;99.90;;;;;;5039708;28;20021;-86
2023/03/12 10:12:20;;;;;;;17.17;10.82;;;6.60;99.90;;;;;;5017730;28;20107;-87
2023/03/12 10:14:48;;;;;;;13.18;9.23;;;6.60;99.90;;;;;;5013160;28;20029;-88
2023/03/12 10:17:59;;;;;;;15.25;10.32;;;6.50;99.90;;;;;;5020968;28;20029;-85
2023/03/12 10:20:43;;;;;;;13.00;9.93;;;6.50;99.90;;;;;;5004751;28;20049;-88
2023/03/12 10:23:41;;;;;;;11.80;8.73;;;6.40;99.90;;;;;;5026052;28;20018;-87
2023/03/12 10:26:17;;;;;;;13.20;9.48;;;6.40;99.90;;;;;;5016676;28;20506;-87
2023/03/12 10:28:48;;;;;;;11.15;8.93;;;6.30;99.90;;;;;;5024336;28;20605;-88
2023/03/12 10:31:27;;;;;;;11.73;7.53;;;6.40;99.90;;;;;;5015151;28;20026;-88
2023/03/12 10:34:01;;;;;;;14.40;9.68;;;6.40;99.90;;;;;;5038891;28;20418;-88
2023/03/12 10:36:39;;;;;;;11.60;9.13;;;6.40;99.90;;;;;;5042266;28;20030;-88
2023/03/12 10:39:28;;;;;;;11.48;8.40;;;6.40;99.90;;;;;;5013470;28;20524;-89
2023/03/12 10:42:00;;;;;;;10.02;7.80;;;6.40;99.90;;;;;;5038759;28;20060;-88
2023/03/12 10:44:31;;;;;;;15.88;8.45;;;6.40;99.90;;;;;;5035825;28;20022;-85
2023/03/12 10:47:27;;;;;;;16.58;10.27;;;6.40;99.90;;;;;;5031762;28;20030;-85
2023/03/12 10:49:53;;;;;;;10.10;7.75;;;6.40;99.90;;;;;;5028134;28;20033;-85
2023/03/12 10:52:21;;;;;;;11.15;8.23;;;6.40;99.90;;;;;;5035269;28;20062;-83
2023/03/12 10:54:50;;;;;;;13.18;8.98;;;6.30;99.90;;;;;;5023709;28;20018;-83
2023/03/12 10:57:17;;;;;;;10.65;8.55;;;6.20;99.90;;;;;;5017342;28;20033;-87
2023/03/12 10:59:46;;;;;;;14.15;9.88;;;6.20;99.90;;;;;;5035176;28;20084;-89
2023/03/12 11:02:39;;;;;;;10.93;9.50;;;6.20;99.90;;;;;;5024667;28;20137;-87
2023/03/12 11:05:20;;;;;;;10.63;7.63;;;6.20;99.90;;;;;;5019269;28;20097;-85
2023/03/12 11:07:46;;;;;;;15.18;10.80;;;6.20;99.90;;;;;;5030519;28;20404;-87
2023/03/12 11:10:19;;;;;;;16.20;10.45;;;6.20;99.90;;;;;;5029045;28;20022;-82
2023/03/12 11:13:00;;;;;;;14.25;9.13;;;6.30;99.90;;;;;;5038437;28;20033;-82
2023/03/12 11:15:41;;;;;;;11.52;10.32;;;6.30;99.90;;;;;;5034485;28;20386;-82
2023/03/12 11:18:21;;;;;;;14.48;10.95;;;6.30;99.90;;;;;;5020349;28;20017;-81
2023/03/12 11:21:16;;;;;;;14.45;11.43;;;6.30;99.90;;;;;;5021050;28;20037;-84
2023/03/12 11:23:47;;;;;;;13.70;10.98;;;6.40;99.90;;;;;;5014266;28;20038;-83
2023/03/12 11:26:21;;;;;;;14.73;10.95;;;6.40;99.90;;;;;;5031315;28;20065;-82
2023/03/12 11:28:56;;;;;;;12.73;10.45;;;6.50;99.90;;;;;;5033352;28;20730;-82
2023/03/12 11:31:33;;;;;;;12.52;10.95;;;6.60;99.90;;;;;;5027003;28;20026;-84
2023/03/12 11:34:04;;;;;;;11.43;10.32;;;6.70;99.90;;;;;;5009870;28;20018;-82
2023/03/12 11:36:59;;;;;;;12.85;9.30;;;6.60;99.90;;;;;;5019281;28;20113;-82
2023/03/12 11:39:46;;;;;;;17.67;10.82;;;6.60;99.90;;;;;;5017789;28;20029;-82
2023/03/12 11:42:30;;;;;;;14.35;10.68;;;6.50;99.90;;;;;;5019242;28;20037;-82
2023/03/12 11:45:03;;;;;;;15.65;10.73;;;6.40;99.90;;;;;;5009403;28;20022;-83
2023/03/12 11:47:57;;;;;;;10.70;5.65;;;6.40;99.90;;;;;;5028251;28;20382;-83
2023/03/12 11:50:49;;;;;;;4.68;2.90;;;6.30;99.90;;;;;;5022408;28;20025;-83
2023/03/12 11:53:24;;;;;;;4.20;2.75;;;5.80;99.90;;;;;;5011421;28;20092;-82
2023/03/12 11:55:59;;;;;;;5.28;2.70;;;5.30;99.90;;;;;;5033465;28;20033;-83
2023/03/12 11:58:27;;;;;;;6.00;1.88;;;5.00;99.90;;;;;;5026335;28;20084;-84
2023/03/12 12:01:28;;;;;;;2.92;1.38;;;4.80;99.90;;;;;;5033211;28;20044;-84
2023/03/12 12:03:59;;;;;;;3.92;1.98;;;4.60;99.90;;;;;;5013642;28;20491;-82
2023/03/12 12:07:10;;;;;;;3.63;1.55;;;4.30;99.90;;;;;;5026831;28;20075;-82
2023/03/12 12:09:50;;;;;;;1.45;0.80;;;4.10;99.90;;;;;;5015037;28;20038;-82
2023/03/12 12:12:34;;;;;;;1.50;0.98;;;3.90;99.90;;;;;;5022668;28;20018;-83
2023/03/12 12:15:19;;;;;;;2.15;1.08;;;3.70;99.90;;;;;;5021837;28;20049;-82
2023/03/12 12:18:10;;;;;;;1.38;1.02;;;3.50;99.90;;;;;;5021760;28;20070;-82
2023/03/12 12:20:39;;;;;;;0.50;0.47;;;3.20;99.90;;;;;;5020949;28;20026;-84
2023/03/12 12:23:11;;;;;;;1.02;0.55;;;3.00;99.90;;;;;;5028211;28;20104;-86
2023/03/12 12:25:45;;;;;;;0.70;0.70;;;2.80;99.90;;;;;;5027668;28;20045;-81
2023/03/12 12:28:21;;;;;;;0.90;0.70;;;2.70;99.90;;;;;;5037088;28;20014;-85
2023/03/12 12:31:16;;;;;;;1.03;0.93;;;2.50;99.90;;;;;;5013420;28;20022;-82
2023/03/12 12:33:54;;;;;;;2.67;1.20;;;2.40;99.90;;;;;;5032103;28;20026;-83
2023/03/12 12:36:23;;;;;;;1.65;1.05;;;2.40;99.90;;;;;;5042548;28;20025;-85
2023/03/12 12:39:04;;;;;;;1.15;0.80;;;2.30;99.90;;;;;;5033372;28;20024;-83
2023/03/12 12:41:37;;;;;;;1.95;0.73;;;2.20;99.90;;;;;;5032325;28;20112;-83
2023/03/12 12:44:20;;;;;;;1.65;0.88;;;2.10;99.90;;;;;;5031163;28;20048;-82
2023/03/12 12:46:54;;;;;;;2.00;1.52;;;2.00;99.90;;;;;;5030271;28;20025;-82
2023/03/12 12:49:28;;;;;;;2.00;1.45;;;2.00;99.90;;;;;;5022333;28;20026;-84
2023/03/12 12:51:58;;;;;;;2.58;1.67;;;1.90;99.90;;;;;;5030164;28;20049;-82
2023/03/12 12:54:45;;;;;;;3.65;1.60;;;1.90;99.90;;;;;;5018103;28;20068;-85
2023/03/12 12:57:11;;;;;;;;;;;1.80;99.90;;;;;;5013443;28;20022;-83
2023/03/12 12:59:37;;;;;;;1.60;1.15;;;1.70;99.90;;;;;;5017973;28;19925;-82